< < Back
Terminal Aerodrome Forecast


Current Version              Previous Versions:   1  2  3  4  5  6  7  8  9  

Terminal Aerodrome Forecast

851
FTUS42 KCHS 031737
TAFCHS
TAF
KCHS 031737Z 0318/0418 06006KT P6SM SCT010 OVC020
     FM032200 13009KT P6SM SCT020 BKN040
     FM040300 19006KT 3SM BR OVC005
     FM040600 20007KT 1SM BR OVC002
      TEMPO 0408/0412 1/2SM FG VV002
     FM041500 22012KT P6SM BKN010=

Latest METAR

060
SAUS80 KWBC 032000 RRI
MTRCHS
METAR KCHS 031956Z 07006KT 10SM BKN013 OVC041 17/11 A3017 RMK AO2 SLP216
T01670106


USA.gov is the U.S. government's official web portal to all federal, state and local government web resources and services.